sensor_id;sensor_type;location;lat;lon;timestamp;temperature;humidity
48686;DHT22;34485;51.536;3.816;2023-03-14T00:01:20;10.30;99.90
48686;DHT22;34485;51.536;3.816;2023-03-14T00:03:46;10.30;99.90
48686;DHT22;34485;51.536;3.816;2023-03-14T00:06:13;10.30;99.90
48686;DHT22;34485;51.536;3.816;2023-03-14T00:08:40;10.20;99.90
48686;DHT22;34485;51.536;3.816;2023-03-14T00:11:13;10.20;99.90
48686;DHT22;34485;51.536;3.816;2023-03-14T00:13:40;10.20;99.90
48686;DHT22;34485;51.536;3.816;2023-03-14T00:16:07;10.30;99.90
48686;DHT22;34485;51.536;3.816;2023-03-14T00:18:34;10.30;99.90
48686;DHT22;34485;51.536;3.816;2023-03-14T00:21:00;10.30;99.90
48686;DHT22;34485;51.536;3.816;2023-03-14T00:23:28;10.20;99.90
48686;DHT22;34485;51.536;3.816;2023-03-14T00:25:57;10.30;99.90
48686;DHT22;34485;51.536;3.816;2023-03-14T00:28:23;10.30;99.90
48686;DHT22;34485;51.536;3.816;2023-03-14T00:30:49;10.30;99.90
48686;DHT22;34485;51.536;3.816;2023-03-14T00:33:14;10.20;99.90
48686;DHT22;34485;51.536;3.816;2023-03-14T00:35:40;10.20;99.90
48686;DHT22;34485;51.536;3.816;2023-03-14T00:38:06;10.20;99.90
48686;DHT22;34485;51.536;3.816;2023-03-14T00:40:31;10.20;99.90
48686;DHT22;34485;51.536;3.816;2023-03-14T00:42:57;10.10;99.90
48686;DHT22;34485;51.536;3.816;2023-03-14T00:45:22;10.10;99.90
48686;DHT22;34485;51.536;3.816;2023-03-14T00:47:48;10.00;99.90
48686;DHT22;34485;51.536;3.816;2023-03-14T00:50:13;10.00;99.90
48686;DHT22;34485;51.536;3.816;2023-03-14T00:52:39;10.00;99.90
48686;DHT22;34485;51.536;3.816;2023-03-14T00:55:05;10.00;99.90
48686;DHT22;34485;51.536;3.816;2023-03-14T00:57:31;10.00;99.90
48686;DHT22;34485;51.536;3.816;2023-03-14T00:59:56;9.90;99.90
48686;DHT22;34485;51.536;3.816;2023-03-14T01:02:22;10.00;99.90
48686;DHT22;34485;51.536;3.816;2023-03-14T01:04:48;10.00;99.90
48686;DHT22;34485;51.536;3.816;2023-03-14T01:07:14;10.00;99.90
48686;DHT22;34485;51.536;3.816;2023-03-14T01:09:40;10.10;99.90
48686;DHT22;34485;51.536;3.816;2023-03-14T01:12:06;10.20;99.90
48686;DHT22;34485;51.536;3.816;2023-03-14T01:14:31;10.20;99.90
48686;DHT22;34485;51.536;3.816;2023-03-14T01:16:57;10.20;99.90
48686;DHT22;34485;51.536;3.816;2023-03-14T01:19:27;10.20;99.90
48686;DHT22;34485;51.536;3.816;2023-03-14T01:21:53;10.20;99.90
48686;DHT22;34485;51.536;3.816;2023-03-14T01:24:19;10.20;99.90
48686;DHT22;34485;51.536;3.816;2023-03-14T01:26:46;10.20;99.90
48686;DHT22;34485;51.536;3.816;2023-03-14T01:29:11;10.20;99.90
48686;DHT22;34485;51.536;3.816;2023-03-14T01:31:37;10.10;99.90
48686;DHT22;34485;51.536;3.816;2023-03-14T01:34:03;10.10;99.90
48686;DHT22;34485;51.536;3.816;2023-03-14T01:36:28;10.10;99.90
48686;DHT22;34485;51.536;3.816;2023-03-14T01:38:54;10.10;99.90
48686;DHT22;34485;51.536;3.816;2023-03-14T01:41:23;10.10;99.90
48686;DHT22;34485;51.536;3.816;2023-03-14T01:43:49;10.00;99.90
48686;DHT22;34485;51.536;3.816;2023-03-14T01:46:38;10.00;99.90
48686;DHT22;34485;51.536;3.816;2023-03-14T01:54:40;10.00;99.90
48686;DHT22;34485;51.536;3.816;2023-03-14T01:57:20;10.00;99.90
48686;DHT22;34485;51.536;3.816;2023-03-14T02:00:18;9.90;99.90
48686;DHT22;34485;51.536;3.816;2023-03-14T02:02:50;9.90;99.90
48686;DHT22;34485;51.536;3.816;2023-03-14T02:05:19;9.90;99.90
48686;DHT22;34485;51.536;3.816;2023-03-14T02:07:49;9.90;99.90
48686;DHT22;34485;51.536;3.816;2023-03-14T02:10:18;10.00;99.90
48686;DHT22;34485;51.536;3.816;2023-03-14T02:12:46;10.00;99.90
48686;DHT22;34485;51.536;3.816;2023-03-14T02:15:12;10.00;99.90
48686;DHT22;34485;51.536;3.816;2023-03-14T02:17:39;10.10;99.90
48686;DHT22;34485;51.536;3.816;2023-03-14T02:22:49;10.10;99.90
48686;DHT22;34485;51.536;3.816;2023-03-14T02:27:54;10.10;99.90
48686;DHT22;34485;51.536;3.816;2023-03-14T02:30:23;10.20;99.90
48686;DHT22;34485;51.536;3.816;2023-03-14T02:32:56;10.20;99.90
48686;DHT22;34485;51.536;3.816;2023-03-14T02:35:27;10.20;99.90
48686;DHT22;34485;51.536;3.816;2023-03-14T02:38:19;10.20;99.90
48686;DHT22;34485;51.536;3.816;2023-03-14T02:40:46;10.20;99.90
48686;DHT22;34485;51.536;3.816;2023-03-14T02:43:12;10.20;99.90
48686;DHT22;34485;51.536;3.816;2023-03-14T02:45:45;10.20;99.90
48686;DHT22;34485;51.536;3.816;2023-03-14T02:48:26;10.20;99.90
48686;DHT22;34485;51.536;3.816;2023-03-14T02:50:57;10.20;99.90
48686;DHT22;34485;51.536;3.816;2023-03-14T02:53:30;10.20;99.90
48686;DHT22;34485;51.536;3.816;2023-03-14T02:55:57;10.10;99.90
48686;DHT22;34485;51.536;3.816;2023-03-14T02:58:22;10.00;99.90
48686;DHT22;34485;51.536;3.816;2023-03-14T03:00:48;10.00;99.90
48686;DHT22;34485;51.536;3.816;2023-03-14T03:03:14;9.90;99.90
48686;DHT22;34485;51.536;3.816;2023-03-14T03:05:39;9.90;99.90
48686;DHT22;34485;51.536;3.816;2023-03-14T03:08:06;9.80;99.90
48686;DHT22;34485;51.536;3.816;2023-03-14T03:10:32;9.80;99.90
48686;DHT22;34485;51.536;3.816;2023-03-14T03:12:57;9.80;99.90
48686;DHT22;34485;51.536;3.816;2023-03-14T03:15:23;9.80;99.90
48686;DHT22;34485;51.536;3.816;2023-03-14T03:17:49;9.80;99.90
48686;DHT22;34485;51.536;3.816;2023-03-14T03:20:15;9.80;99.90
48686;DHT22;34485;51.536;3.816;2023-03-14T03:22:40;9.80;99.90
48686;DHT22;34485;51.536;3.816;2023-03-14T03:25:07;9.80;99.90
48686;DHT22;34485;51.536;3.816;2023-03-14T03:27:35;9.70;99.90
48686;DHT22;34485;51.536;3.816;2023-03-14T03:30:02;9.80;99.90
48686;DHT22;34485;51.536;3.816;2023-03-14T03:32:28;9.80;99.90
48686;DHT22;34485;51.536;3.816;2023-03-14T03:34:53;9.90;99.90
48686;DHT22;34485;51.536;3.816;2023-03-14T03:37:19;10.00;99.90
48686;DHT22;34485;51.536;3.816;2023-03-14T03:39:45;10.00;99.90
48686;DHT22;34485;51.536;3.816;2023-03-14T03:42:10;10.00;99.90
48686;DHT22;34485;51.536;3.816;2023-03-14T03:44:36;10.10;99.90
48686;DHT22;34485;51.536;3.816;2023-03-14T03:47:02;10.10;99.90
48686;DHT22;34485;51.536;3.816;2023-03-14T03:49:29;10.10;99.90
48686;DHT22;34485;51.536;3.816;2023-03-14T03:51:55;10.10;99.90
48686;DHT22;34485;51.536;3.816;2023-03-14T03:54:21;10.20;99.90
48686;DHT22;34485;51.536;3.816;2023-03-14T03:56:46;10.20;99.90
48686;DHT22;34485;51.536;3.816;2023-03-14T03:59:12;10.20;99.90
48686;DHT22;34485;51.536;3.816;2023-03-14T04:01:38;10.20;99.90
48686;DHT22;34485;51.536;3.816;2023-03-14T04:04:03;10.20;99.90
48686;DHT22;34485;51.536;3.816;2023-03-14T04:06:29;10.20;99.90
48686;DHT22;34485;51.536;3.816;2023-03-14T04:08:55;10.20;99.90
48686;DHT22;34485;51.536;3.816;2023-03-14T04:11:20;10.10;99.90
48686;DHT22;34485;51.536;3.816;2023-03-14T04:13:46;10.10;99.90
48686;DHT22;34485;51.536;3.816;2023-03-14T04:16:18;10.10;99.90
48686;DHT22;34485;51.536;3.816;2023-03-14T04:18:44;10.20;99.90
48686;DHT22;34485;51.536;3.816;2023-03-14T04:21:10;10.10;99.90
48686;DHT22;34485;51.536;3.816;2023-03-14T04:23:35;10.10;99.90
48686;DHT22;34485;51.536;3.816;2023-03-14T04:26:02;10.10;99.90
48686;DHT22;34485;51.536;3.816;2023-03-14T04:28:28;10.10;99.90
48686;DHT22;34485;51.536;3.816;2023-03-14T04:30:54;10.10;99.90
48686;DHT22;34485;51.536;3.816;2023-03-14T04:33:19;10.10;99.90
48686;DHT22;34485;51.536;3.816;2023-03-14T04:35:45;10.10;99.90
48686;DHT22;34485;51.536;3.816;2023-03-14T04:38:12;10.00;99.90
48686;DHT22;34485;51.536;3.816;2023-03-14T04:40:41;10.00;99.90
48686;DHT22;34485;51.536;3.816;2023-03-14T04:43:08;10.00;99.90
48686;DHT22;34485;51.536;3.816;2023-03-14T04:45:35;9.90;99.90
48686;DHT22;34485;51.536;3.816;2023-03-14T04:48:00;9.90;99.90
48686;DHT22;34485;51.536;3.816;2023-03-14T04:50:26;9.80;99.90
48686;DHT22;34485;51.536;3.816;2023-03-14T04:52:52;9.80;99.90
48686;DHT22;34485;51.536;3.816;2023-03-14T04:55:17;9.80;99.90
48686;DHT22;34485;51.536;3.816;2023-03-14T04:57:43;9.80;99.90
48686;DHT22;34485;51.536;3.816;2023-03-14T05:00:09;9.70;99.90
48686;DHT22;34485;51.536;3.816;2023-03-14T05:02:35;9.70;99.90
48686;DHT22;34485;51.536;3.816;2023-03-14T05:05:01;9.60;99.90
48686;DHT22;34485;51.536;3.816;2023-03-14T05:07:27;9.60;99.90
48686;DHT22;34485;51.536;3.816;2023-03-14T05:09:52;9.60;99.90
48686;DHT22;34485;51.536;3.816;2023-03-14T05:12:19;9.60;99.90
48686;DHT22;34485;51.536;3.816;2023-03-14T05:14:45;9.60;99.90
48686;DHT22;34485;51.536;3.816;2023-03-14T05:17:11;9.60;99.90
48686;DHT22;34485;51.536;3.816;2023-03-14T05:19:38;9.60;99.90
48686;DHT22;34485;51.536;3.816;2023-03-14T05:22:04;9.40;99.90
48686;DHT22;34485;51.536;3.816;2023-03-14T05:24:29;9.00;99.90
48686;DHT22;34485;51.536;3.816;2023-03-14T05:26:55;8.80;99.90
48686;DHT22;34485;51.536;3.816;2023-03-14T05:29:20;8.60;99.90
48686;DHT22;34485;51.536;3.816;2023-03-14T05:31:46;8.40;99.90
48686;DHT22;34485;51.536;3.816;2023-03-14T05:34:12;8.30;99.90
48686;DHT22;34485;51.536;3.816;2023-03-14T05:36:38;8.20;99.90
48686;DHT22;34485;51.536;3.816;2023-03-14T05:39:03;8.10;99.90
48686;DHT22;34485;51.536;3.816;2023-03-14T05:41:29;8.10;99.90
48686;DHT22;34485;51.536;3.816;2023-03-14T05:43:54;8.00;99.90
48686;DHT22;34485;51.536;3.816;2023-03-14T05:46:20;7.90;99.90
48686;DHT22;34485;51.536;3.816;2023-03-14T05:48:46;7.90;99.90
48686;DHT22;34485;51.536;3.816;2023-03-14T05:51:11;7.90;99.90
48686;DHT22;34485;51.536;3.816;2023-03-14T05:53:37;7.80;99.90
48686;DHT22;34485;51.536;3.816;2023-03-14T05:56:03;7.80;99.90
48686;DHT22;34485;51.536;3.816;2023-03-14T05:58:28;7.80;99.90
48686;DHT22;34485;51.536;3.816;2023-03-14T06:00:54;7.80;99.90
48686;DHT22;34485;51.536;3.816;2023-03-14T06:03:19;7.70;99.90
48686;DHT22;34485;51.536;3.816;2023-03-14T06:05:45;7.70;99.90
48686;DHT22;34485;51.536;3.816;2023-03-14T06:08:10;7.70;99.90
48686;DHT22;34485;51.536;3.816;2023-03-14T06:10:36;7.70;99.90
48686;DHT22;34485;51.536;3.816;2023-03-14T06:13:03;7.60;99.90
48686;DHT22;34485;51.536;3.816;2023-03-14T06:15:28;7.60;99.90
48686;DHT22;34485;51.536;3.816;2023-03-14T06:17:55;7.60;99.90
48686;DHT22;34485;51.536;3.816;2023-03-14T06:20:21;7.60;99.90
48686;DHT22;34485;51.536;3.816;2023-03-14T06:22:47;7.60;99.90
48686;DHT22;34485;51.536;3.816;2023-03-14T06:25:12;7.60;99.90
48686;DHT22;34485;51.536;3.816;2023-03-14T06:27:38;7.40;99.90
48686;DHT22;34485;51.536;3.816;2023-03-14T06:30:04;7.30;99.90
48686;DHT22;34485;51.536;3.816;2023-03-14T06:32:30;7.30;99.90
48686;DHT22;34485;51.536;3.816;2023-03-14T06:34:56;7.30;99.90
48686;DHT22;34485;51.536;3.816;2023-03-14T06:37:22;7.30;99.90
48686;DHT22;34485;51.536;3.816;2023-03-14T06:39:48;7.30;99.90
48686;DHT22;34485;51.536;3.816;2023-03-14T06:42:15;7.30;99.90
48686;DHT22;34485;51.536;3.816;2023-03-14T06:44:40;7.30;99.90
48686;DHT22;34485;51.536;3.816;2023-03-14T06:47:06;7.40;99.90
48686;DHT22;34485;51.536;3.816;2023-03-14T06:49:32;7.40;99.90
48686;DHT22;34485;51.536;3.816;2023-03-14T06:51:57;7.40;99.90
48686;DHT22;34485;51.536;3.816;2023-03-14T06:54:23;7.30;99.90
48686;DHT22;34485;51.536;3.816;2023-03-14T06:56:48;7.30;99.90
48686;DHT22;34485;51.536;3.816;2023-03-14T06:59:14;7.30;99.90
48686;DHT22;34485;51.536;3.816;2023-03-14T07:01:40;7.40;99.90
48686;DHT22;34485;51.536;3.816;2023-03-14T07:04:05;7.40;99.90
48686;DHT22;34485;51.536;3.816;2023-03-14T07:06:31;7.50;99.90
48686;DHT22;34485;51.536;3.816;2023-03-14T07:08:58;7.50;99.90
48686;DHT22;34485;51.536;3.816;2023-03-14T07:11:23;7.60;99.90
48686;DHT22;34485;51.536;3.816;2023-03-14T07:16:17;7.60;99.90
48686;DHT22;34485;51.536;3.816;2023-03-14T07:18:43;7.60;99.90
48686;DHT22;34485;51.536;3.816;2023-03-14T07:21:09;7.60;99.90
48686;DHT22;34485;51.536;3.816;2023-03-14T07:23:35;7.70;99.90
48686;DHT22;34485;51.536;3.816;2023-03-14T07:26:01;7.70;99.90
48686;DHT22;34485;51.536;3.816;2023-03-14T07:28:27;7.70;99.90
48686;DHT22;34485;51.536;3.816;2023-03-14T07:30:53;7.70;99.90
48686;DHT22;34485;51.536;3.816;2023-03-14T07:33:19;7.80;99.90
48686;DHT22;34485;51.536;3.816;2023-03-14T07:35:49;7.80;99.90
48686;DHT22;34485;51.536;3.816;2023-03-14T07:38:15;7.80;99.90
48686;DHT22;34485;51.536;3.816;2023-03-14T07:40:41;7.70;99.90
48686;DHT22;34485;51.536;3.816;2023-03-14T07:43:07;7.60;99.90
48686;DHT22;34485;51.536;3.816;2023-03-14T07:45:32;7.60;99.90
48686;DHT22;34485;51.536;3.816;2023-03-14T07:47:58;7.60;99.90
48686;DHT22;34485;51.536;3.816;2023-03-14T07:50:24;7.60;99.90
48686;DHT22;34485;51.536;3.816;2023-03-14T07:52:50;7.70;99.90
48686;DHT22;34485;51.536;3.816;2023-03-14T07:55:16;7.70;99.90
48686;DHT22;34485;51.536;3.816;2023-03-14T07:57:41;7.70;99.90
48686;DHT22;34485;51.536;3.816;2023-03-14T08:00:08;7.70;99.90
48686;DHT22;34485;51.536;3.816;2023-03-14T08:02:34;7.70;99.90
48686;DHT22;34485;51.536;3.816;2023-03-14T08:05:00;7.70;99.90
48686;DHT22;34485;51.536;3.816;2023-03-14T08:07:25;7.70;99.90
48686;DHT22;34485;51.536;3.816;2023-03-14T08:09:51;7.70;99.90
48686;DHT22;34485;51.536;3.816;2023-03-14T08:12:17;7.60;99.90
48686;DHT22;34485;51.536;3.816;2023-03-14T08:14:42;7.60;99.90
48686;DHT22;34485;51.536;3.816;2023-03-14T08:17:08;7.60;99.90
48686;DHT22;34485;51.536;3.816;2023-03-14T08:19:34;7.60;99.90
48686;DHT22;34485;51.536;3.816;2023-03-14T08:22:00;7.60;99.90
48686;DHT22;34485;51.536;3.816;2023-03-14T08:24:25;7.70;99.90
48686;DHT22;34485;51.536;3.816;2023-03-14T08:26:51;7.70;99.90
48686;DHT22;34485;51.536;3.816;2023-03-14T08:29:17;8.00;99.90
48686;DHT22;34485;51.536;3.816;2023-03-14T08:31:42;8.20;99.90
48686;DHT22;34485;51.536;3.816;2023-03-14T08:34:09;8.20;99.90
48686;DHT22;34485;51.536;3.816;2023-03-14T08:36:35;8.10;99.90
48686;DHT22;34485;51.536;3.816;2023-03-14T08:39:00;8.10;99.90
48686;DHT22;34485;51.536;3.816;2023-03-14T08:41:26;8.10;99.90
48686;DHT22;34485;51.536;3.816;2023-03-14T08:43:52;8.20;99.90
48686;DHT22;34485;51.536;3.816;2023-03-14T08:46:17;8.00;99.90
48686;DHT22;34485;51.536;3.816;2023-03-14T08:48:43;7.90;99.90
48686;DHT22;34485;51.536;3.816;2023-03-14T08:51:12;7.80;99.90
48686;DHT22;34485;51.536;3.816;2023-03-14T08:53:39;7.90;99.90
48686;DHT22;34485;51.536;3.816;2023-03-14T08:56:06;8.10;99.90
48686;DHT22;34485;51.536;3.816;2023-03-14T08:58:32;8.10;99.90
48686;DHT22;34485;51.536;3.816;2023-03-14T09:00:58;7.90;99.90
48686;DHT22;34485;51.536;3.816;2023-03-14T09:03:24;7.80;99.90
48686;DHT22;34485;51.536;3.816;2023-03-14T09:05:51;7.90;99.90
48686;DHT22;34485;51.536;3.816;2023-03-14T09:08:17;7.90;99.90
48686;DHT22;34485;51.536;3.816;2023-03-14T09:10:42;8.00;99.90
48686;DHT22;34485;51.536;3.816;2023-03-14T09:13:08;8.10;99.90
48686;DHT22;34485;51.536;3.816;2023-03-14T09:15:33;8.10;99.90
48686;DHT22;34485;51.536;3.816;2023-03-14T09:17:59;8.20;99.90
48686;DHT22;34485;51.536;3.816;2023-03-14T09:20:25;8.20;99.90
48686;DHT22;34485;51.536;3.816;2023-03-14T09:22:50;8.30;99.90
48686;DHT22;34485;51.536;3.816;2023-03-14T09:25:16;8.40;99.90
48686;DHT22;34485;51.536;3.816;2023-03-14T09:27:42;8.70;99.90
48686;DHT22;34485;51.536;3.816;2023-03-14T09:30:08;8.80;99.90
48686;DHT22;34485;51.536;3.816;2023-03-14T09:32:34;8.90;99.90
48686;DHT22;34485;51.536;3.816;2023-03-14T09:35:00;8.90;99.90
48686;DHT22;34485;51.536;3.816;2023-03-14T09:37:25;8.80;99.90
48686;DHT22;34485;51.536;3.816;2023-03-14T09:39:51;8.80;99.90
48686;DHT22;34485;51.536;3.816;2023-03-14T09:42:20;8.90;99.90
48686;DHT22;34485;51.536;3.816;2023-03-14T09:45:00;9.10;99.90
48686;DHT22;34485;51.536;3.816;2023-03-14T09:47:26;9.10;99.90
48686;DHT22;34485;51.536;3.816;2023-03-14T09:49:52;9.10;99.90
48686;DHT22;34485;51.536;3.816;2023-03-14T09:52:24;9.20;99.90
48686;DHT22;34485;51.536;3.816;2023-03-14T09:54:58;9.30;99.90
48686;DHT22;34485;51.536;3.816;2023-03-14T09:57:26;9.20;99.90
48686;DHT22;34485;51.536;3.816;2023-03-14T09:59:56;9.20;99.90
48686;DHT22;34485;51.536;3.816;2023-03-14T10:02:24;9.30;99.90
48686;DHT22;34485;51.536;3.816;2023-03-14T10:04:52;9.20;99.90
48686;DHT22;34485;51.536;3.816;2023-03-14T10:07:30;9.30;99.90
48686;DHT22;34485;51.536;3.816;2023-03-14T10:09:57;9.40;99.90
48686;DHT22;34485;51.536;3.816;2023-03-14T10:12:36;9.40;99.90
48686;DHT22;34485;51.536;3.816;2023-03-14T10:15:07;9.40;99.90
48686;DHT22;34485;51.536;3.816;2023-03-14T10:18:00;9.60;99.90
48686;DHT22;34485;51.536;3.816;2023-03-14T10:20:37;9.90;99.90
48686;DHT22;34485;51.536;3.816;2023-03-14T10:25:40;9.10;99.90
48686;DHT22;34485;51.536;3.816;2023-03-14T10:30:51;8.30;99.90
48686;DHT22;34485;51.536;3.816;2023-03-14T10:33:23;8.40;99.90
48686;DHT22;34485;51.536;3.816;2023-03-14T10:38:38;8.70;99.90
48686;DHT22;34485;51.536;3.816;2023-03-14T10:41:19;9.00;99.90
48686;DHT22;34485;51.536;3.816;2023-03-14T10:43:54;9.30;99.90
48686;DHT22;34485;51.536;3.816;2023-03-14T10:46:24;9.70;99.90
48686;DHT22;34485;51.536;3.816;2023-03-14T10:48:52;9.90;99.90
48686;DHT22;34485;51.536;3.816;2023-03-14T10:51:28;9.90;99.90
48686;DHT22;34485;51.536;3.816;2023-03-14T10:54:13;9.60;99.90
48686;DHT22;34485;51.536;3.816;2023-03-14T10:56:39;9.20;99.90
48686;DHT22;34485;51.536;3.816;2023-03-14T10:59:13;8.70;99.90
48686;DHT22;34485;51.536;3.816;2023-03-14T11:07:14;8.50;99.90
48686;DHT22;34485;51.536;3.816;2023-03-14T11:09:56;8.50;99.90
48686;DHT22;34485;51.536;3.816;2023-03-14T11:15:25;9.20;99.90
48686;DHT22;34485;51.536;3.816;2023-03-14T11:21:12;9.80;99.90
48686;DHT22;34485;51.536;3.816;2023-03-14T11:23:56;9.60;99.90
48686;DHT22;34485;51.536;3.816;2023-03-14T11:26:51;9.60;99.90
48686;DHT22;34485;51.536;3.816;2023-03-14T11:29:45;9.40;99.90
48686;DHT22;34485;51.536;3.816;2023-03-14T11:32:18;9.30;99.90
48686;DHT22;34485;51.536;3.816;2023-03-14T11:34:51;9.40;99.90
48686;DHT22;34485;51.536;3.816;2023-03-14T11:37:45;9.40;99.90
48686;DHT22;34485;51.536;3.816;2023-03-14T11:40:22;9.50;98.30
48686;DHT22;34485;51.536;3.816;2023-03-14T11:43:17;9.60;99.90
48686;DHT22;34485;51.536;3.816;2023-03-14T11:45:42;9.80;99.90
48686;DHT22;34485;51.536;3.816;2023-03-14T11:50:43;9.70;98.90
48686;DHT22;34485;51.536;3.816;2023-03-14T11:56:39;9.60;97.30
48686;DHT22;34485;51.536;3.816;2023-03-14T11:59:24;9.30;97.20
48686;DHT22;34485;51.536;3.816;2023-03-14T12:07:19;9.40;98.80
48686;DHT22;34485;51.536;3.816;2023-03-14T12:09:46;9.40;97.00
48686;DHT22;34485;51.536;3.816;2023-03-14T12:12:16;9.40;97.00
48686;DHT22;34485;51.536;3.816;2023-03-14T12:14:46;9.50;96.10
48686;DHT22;34485;51.536;3.816;2023-03-14T12:20:22;9.60;98.10
48686;DHT22;34485;51.536;3.816;2023-03-14T12:22:47;9.50;96.80
48686;DHT22;34485;51.536;3.816;2023-03-14T12:25:22;9.30;95.20
48686;DHT22;34485;51.536;3.816;2023-03-14T12:28:04;9.20;94.70
48686;DHT22;34485;51.536;3.816;2023-03-14T12:30:41;9.20;93.60
48686;DHT22;34485;51.536;3.816;2023-03-14T12:38:13;9.30;92.40
48686;DHT22;34485;51.536;3.816;2023-03-14T12:41:11;9.30;92.90
48686;DHT22;34485;51.536;3.816;2023-03-14T12:43:33;9.30;92.80
48686;DHT22;34485;51.536;3.816;2023-03-14T12:48:42;9.40;89.80
48686;DHT22;34485;51.536;3.816;2023-03-14T12:51:16;9.40;87.70
48686;DHT22;34485;51.536;3.816;2023-03-14T13:01:46;9.40;88.30
48686;DHT22;34485;51.536;3.816;2023-03-14T13:04:13;9.20;88.80
48686;DHT22;34485;51.536;3.816;2023-03-14T13:06:57;8.90;81.50
48686;DHT22;34485;51.536;3.816;2023-03-14T13:11:53;8.90;83.70
48686;DHT22;34485;51.536;3.816;2023-03-14T13:14:19;8.90;82.30
48686;DHT22;34485;51.536;3.816;2023-03-14T13:16:46;8.80;85.10
48686;DHT22;34485;51.536;3.816;2023-03-14T13:19:27;8.90;86.30
48686;DHT22;34485;51.536;3.816;2023-03-14T13:22:01;8.90;85.40
48686;DHT22;34485;51.536;3.816;2023-03-14T13:24:28;8.90;81.10
48686;DHT22;34485;51.536;3.816;2023-03-14T13:26:55;8.80;75.70
48686;DHT22;34485;51.536;3.816;2023-03-14T13:29:23;8.80;74.00
48686;DHT22;34485;51.536;3.816;2023-03-14T13:31:57;8.80;75.50
48686;DHT22;34485;51.536;3.816;2023-03-14T13:34:29;8.80;77.00
48686;DHT22;34485;51.536;3.816;2023-03-14T14:01:49;8.50;90.10
48686;DHT22;34485;51.536;3.816;2023-03-14T14:04:23;8.40;92.60
48686;DHT22;34485;51.536;3.816;2023-03-14T14:06:53;8.30;92.40
48686;DHT22;34485;51.536;3.816;2023-03-14T14:09:35;8.20;92.30
48686;DHT22;34485;51.536;3.816;2023-03-14T14:12:06;8.20;91.60
48686;DHT22;34485;51.536;3.816;2023-03-14T14:15:04;8.10;92.30
48686;DHT22;34485;51.536;3.816;2023-03-14T14:20:00;7.90;91.40
48686;DHT22;34485;51.536;3.816;2023-03-14T14:22:30;7.90;93.80
48686;DHT22;34485;51.536;3.816;2023-03-14T14:24:56;7.90;93.20
48686;DHT22;34485;51.536;3.816;2023-03-14T14:27:40;7.90;90.50
48686;DHT22;34485;51.536;3.816;2023-03-14T14:30:25;7.90;90.00
48686;DHT22;34485;51.536;3.816;2023-03-14T14:32:52;7.90;90.00
48686;DHT22;34485;51.536;3.816;2023-03-14T14:35:35;7.90;88.50
48686;DHT22;34485;51.536;3.816;2023-03-14T14:38:01;7.90;89.10
48686;DHT22;34485;51.536;3.816;2023-03-14T14:40:29;7.90;84.80
48686;DHT22;34485;51.536;3.816;2023-03-14T14:43:02;8.00;90.40
48686;DHT22;34485;51.536;3.816;2023-03-14T14:45:28;8.10;92.10
48686;DHT22;34485;51.536;3.816;2023-03-14T14:48:02;8.20;91.40
48686;DHT22;34485;51.536;3.816;2023-03-14T14:50:32;8.20;91.40
48686;DHT22;34485;51.536;3.816;2023-03-14T14:53:00;8.30;90.80
48686;DHT22;34485;51.536;3.816;2023-03-14T14:55:38;8.20;91.10
48686;DHT22;34485;51.536;3.816;2023-03-14T14:58:25;8.20;92.20
48686;DHT22;34485;51.536;3.816;2023-03-14T15:01:03;8.10;91.70
48686;DHT22;34485;51.536;3.816;2023-03-14T15:03:32;8.10;92.70
48686;DHT22;34485;51.536;3.816;2023-03-14T15:05:58;8.10;94.60
48686;DHT22;34485;51.536;3.816;2023-03-14T15:08:25;8.00;95.40
48686;DHT22;34485;51.536;3.816;2023-03-14T15:10:51;8.00;93.30
48686;DHT22;34485;51.536;3.816;2023-03-14T15:13:17;8.00;94.80
48686;DHT22;34485;51.536;3.816;2023-03-14T15:15:43;8.00;94.60
48686;DHT22;34485;51.536;3.816;2023-03-14T15:18:18;8.00;94.90
48686;DHT22;34485;51.536;3.816;2023-03-14T15:20:45;8.00;93.60
48686;DHT22;34485;51.536;3.816;2023-03-14T15:23:13;8.00;95.00
48686;DHT22;34485;51.536;3.816;2023-03-14T15:25:39;8.00;95.30
48686;DHT22;34485;51.536;3.816;2023-03-14T15:30:40;8.10;92.20
48686;DHT22;34485;51.536;3.816;2023-03-14T15:33:06;8.10;89.00
48686;DHT22;34485;51.536;3.816;2023-03-14T15:35:37;8.10;93.80
48686;DHT22;34485;51.536;3.816;2023-03-14T15:38:03;8.20;92.20
48686;DHT22;34485;51.536;3.816;2023-03-14T15:40:29;8.20;92.10
48686;DHT22;34485;51.536;3.816;2023-03-14T15:42:54;8.10;92.90
48686;DHT22;34485;51.536;3.816;2023-03-14T15:45:21;8.10;92.30
48686;DHT22;34485;51.536;3.816;2023-03-14T15:47:47;8.00;93.10
48686;DHT22;34485;51.536;3.816;2023-03-14T15:50:12;7.90;92.30
48686;DHT22;34485;51.536;3.816;2023-03-14T15:52:38;7.70;92.20
48686;DHT22;34485;51.536;3.816;2023-03-14T15:55:04;7.60;93.10
48686;DHT22;34485;51.536;3.816;2023-03-14T15:57:30;7.60;94.00
48686;DHT22;34485;51.536;3.816;2023-03-14T15:59:55;7.60;92.60
48686;DHT22;34485;51.536;3.816;2023-03-14T16:02:21;7.60;93.00
48686;DHT22;34485;51.536;3.816;2023-03-14T16:04:47;7.50;93.90
48686;DHT22;34485;51.536;3.816;2023-03-14T16:07:12;7.50;93.40
48686;DHT22;34485;51.536;3.816;2023-03-14T16:09:38;7.60;93.00
48686;DHT22;34485;51.536;3.816;2023-03-14T16:12:04;7.50;94.30
48686;DHT22;34485;51.536;3.816;2023-03-14T16:14:33;7.60;95.10
48686;DHT22;34485;51.536;3.816;2023-03-14T16:16:58;7.50;94.40
48686;DHT22;34485;51.536;3.816;2023-03-14T16:19:27;7.60;92.30
48686;DHT22;34485;51.536;3.816;2023-03-14T16:21:53;7.50;92.30
48686;DHT22;34485;51.536;3.816;2023-03-14T16:24:19;7.40;92.90
48686;DHT22;34485;51.536;3.816;2023-03-14T16:26:44;7.40;94.40
48686;DHT22;34485;51.536;3.816;2023-03-14T16:29:11;7.40;93.50
48686;DHT22;34485;51.536;3.816;2023-03-14T16:31:36;7.40;94.70
48686;DHT22;34485;51.536;3.816;2023-03-14T16:34:08;7.40;94.00
48686;DHT22;34485;51.536;3.816;2023-03-14T16:36:34;7.40;92.10
48686;DHT22;34485;51.536;3.816;2023-03-14T16:38:59;7.30;93.30
48686;DHT22;34485;51.536;3.816;2023-03-14T16:41:25;7.30;94.40
48686;DHT22;34485;51.536;3.816;2023-03-14T16:43:56;7.30;94.10
48686;DHT22;34485;51.536;3.816;2023-03-14T16:46:21;7.30;94.50
48686;DHT22;34485;51.536;3.816;2023-03-14T16:48:49;7.20;94.90
48686;DHT22;34485;51.536;3.816;2023-03-14T16:51:14;7.10;95.20
48686;DHT22;34485;51.536;3.816;2023-03-14T16:53:41;7.10;96.60
48686;DHT22;34485;51.536;3.816;2023-03-14T16:56:07;6.90;96.80
48686;DHT22;34485;51.536;3.816;2023-03-14T16:58:33;6.90;96.30
48686;DHT22;34485;51.536;3.816;2023-03-14T17:00:59;6.80;96.70
48686;DHT22;34485;51.536;3.816;2023-03-14T17:03:54;6.70;98.10
48686;DHT22;34485;51.536;3.816;2023-03-14T17:06:25;6.60;97.60
48686;DHT22;34485;51.536;3.816;2023-03-14T17:08:52;6.50;97.70
48686;DHT22;34485;51.536;3.816;2023-03-14T17:11:18;6.40;99.30
48686;DHT22;34485;51.536;3.816;2023-03-14T17:13:43;6.30;98.30
48686;DHT22;34485;51.536;3.816;2023-03-14T17:16:09;6.30;98.70
48686;DHT22;34485;51.536;3.816;2023-03-14T17:18:35;6.20;98.80
48686;DHT22;34485;51.536;3.816;2023-03-14T17:21:01;6.10;99.60
48686;DHT22;34485;51.536;3.816;2023-03-14T17:23:28;6.00;99.90
48686;DHT22;34485;51.536;3.816;2023-03-14T17:25:54;6.00;99.90